Bellmont, Illinois
Current Conditions -  °F | °C
As of 4:15 PM on Sunday 25 Jan 2015 (Local Time) from KAJG Reporting Station
Light Rain Light Rain  
Wind Chill: 43°   Ceiling: 500
Heat Index: 43°   Visibility: 2mi
Dew Point: 39°   Wind: 0mph
Humidity: 87%   Direction: NA
Pressure: 29.63"   Gusts: NA
Location:  38.38°N, 87.91°W
Report Text: KAJG 252215Z AUTO 00000KT 2SM -RA OVC005 06/04 A2963 RMK AO2 P0001
Loading
Personal Weather Stations






























Interactive Weather Map New forecast layout! Learn more

10-Day Weather Forecast

Advertisements
Track Severe Weather on mobile